createdAt,value
2023-04-01T00:03:36.691Z,101376.54
2023-04-01T00:06:05.229Z,101379.88
2023-04-01T00:08:33.631Z,101387.66
2023-04-01T00:11:02.269Z,101388.98
2023-04-01T00:13:30.578Z,101388.48
2023-04-01T00:16:00.169Z,101387.79
2023-04-01T00:18:32.173Z,101390.33
2023-04-01T00:21:00.418Z,101387.48
2023-04-01T00:23:29.079Z,101384.09
2023-04-01T00:25:57.095Z,101386.28
2023-04-01T00:28:25.933Z,101380.56
2023-04-01T00:30:54.755Z,101381.65
2023-04-01T00:33:23.060Z,101379.89
2023-04-01T00:35:51.364Z,101382.08
2023-04-01T00:38:20.726Z,101381.23
2023-04-01T00:40:49.409Z,101375.71
2023-04-01T00:43:20.628Z,101374.48
2023-04-01T00:45:50.779Z,101372.70
2023-04-01T00:48:25.992Z,101365.35
2023-04-01T00:51:07.406Z,101363.08
2023-04-01T00:53:40.018Z,101358.97
2023-04-01T00:56:16.179Z,101357.38
2023-04-01T00:59:00.171Z,101356.52
2023-04-01T01:01:31.095Z,101348.63
2023-04-01T01:03:59.893Z,101357.30
2023-04-01T01:06:51.828Z,101348.48
2023-04-01T01:09:30.512Z,101345.45
2023-04-01T01:12:04.698Z,101334.70
2023-04-01T01:14:45.631Z,101327.51
2023-04-01T01:17:38.771Z,101328.25
2023-04-01T01:20:39.087Z,101313.71
2023-04-01T01:23:42.731Z,101310.65
2023-04-01T01:26:29.679Z,101308.91
2023-04-01T01:29:16.580Z,101309.29
2023-04-01T01:32:22.085Z,101308.81
2023-04-01T01:35:17.971Z,101299.86
2023-04-01T01:37:47.813Z,101294.13
2023-04-01T01:40:17.159Z,101293.09
2023-04-01T01:42:50.795Z,101284.30
2023-04-01T01:45:22.837Z,101288.30
2023-04-01T01:47:52.883Z,101281.34
2023-04-01T01:50:25.112Z,101274.72
2023-04-01T01:53:04.837Z,101275.84
2023-04-01T01:55:37.247Z,101272.98
2023-04-01T01:58:33.678Z,101269.25
2023-04-01T02:01:07.023Z,101270.51
2023-04-01T02:03:39.178Z,101276.10
2023-04-01T02:06:11.050Z,101277.02
2023-04-01T02:08:56.559Z,101279.90
2023-04-01T02:11:33.633Z,101277.39
2023-04-01T02:14:11.053Z,101281.35
2023-04-01T02:16:42.628Z,101273.48
2023-04-01T02:19:13.094Z,101275.34
2023-04-01T02:21:43.785Z,101270.73
2023-04-01T02:24:15.401Z,101274.20
2023-04-01T02:26:47.051Z,101265.06
2023-04-01T02:29:16.762Z,101265.81
2023-04-01T02:31:45.277Z,101268.02
2023-04-01T02:34:14.922Z,101264.66
2023-04-01T02:36:44.125Z,101268.63
2023-04-01T02:39:14.188Z,101269.73
2023-04-01T02:41:44.705Z,101273.34
2023-04-01T02:44:14.625Z,101279.14
2023-04-01T02:46:43.927Z,101283.48
2023-04-01T02:49:12.902Z,101285.45
2023-04-01T02:51:41.134Z,101299.14
2023-04-01T02:54:09.917Z,101303.28
2023-04-01T02:56:38.050Z,101297.69
2023-04-01T02:59:06.762Z,101295.55
2023-04-01T03:01:35.124Z,101295.74
2023-04-01T03:04:04.536Z,101294.33
2023-04-01T03:06:33.905Z,101290.39
2023-04-01T03:09:01.964Z,101286.09
2023-04-01T03:11:31.143Z,101288.95
2023-04-01T03:13:59.337Z,101293.09
2023-04-01T03:16:27.517Z,101297.80
2023-04-01T03:18:55.904Z,101299.07
2023-04-01T03:21:25.387Z,101297.27
2023-04-01T03:23:53.468Z,101296.57
2023-04-01T03:26:22.615Z,101300.54
2023-04-01T03:28:50.894Z,101302.54
2023-04-01T03:31:20.421Z,101302.89
2023-04-01T03:33:49.974Z,101305.05
2023-04-01T03:36:18.879Z,101305.59
2023-04-01T03:38:48.127Z,101311.19
2023-04-01T03:41:18.457Z,101317.33
2023-04-01T03:43:46.927Z,101319.48
2023-04-01T03:46:20.033Z,101322.89
2023-04-01T03:48:48.395Z,101322.54
2023-04-01T03:51:16.625Z,101321.82
2023-04-01T03:53:45.320Z,101323.81
2023-04-01T03:56:13.734Z,101334.27
2023-04-01T03:58:41.945Z,101340.38
2023-04-01T04:01:22.170Z,101343.45
2023-04-01T04:03:52.049Z,101346.53
2023-04-01T04:06:20.817Z,101338.30
2023-04-01T04:08:49.457Z,101346.08
2023-04-01T04:11:17.835Z,101352.38
2023-04-01T04:13:46.772Z,101358.33
2023-04-01T04:16:16.335Z,101355.83
2023-04-01T04:18:44.600Z,101347.56
2023-04-01T04:21:16.885Z,101349.17
2023-04-01T04:23:45.202Z,101352.80
2023-04-01T04:26:15.267Z,101345.83
2023-04-01T04:28:43.877Z,101338.67
2023-04-01T04:31:12.228Z,101331.15
2023-04-01T04:33:40.564Z,101326.86
2023-04-01T04:36:09.325Z,101325.80
2023-04-01T04:38:37.421Z,101330.48
2023-04-01T04:41:10.890Z,101337.67
2023-04-01T04:43:40.721Z,101331.93
2023-04-01T04:46:11.268Z,101338.26
2023-04-01T04:48:39.656Z,101340.95
2023-04-01T04:51:07.686Z,101345.65
2023-04-01T04:53:36.337Z,101353.76
2023-04-01T04:56:04.760Z,101371.89
2023-04-01T04:58:34.930Z,101384.48
2023-04-01T05:01:12.842Z,101382.50
2023-04-01T05:03:41.292Z,101383.61
2023-04-01T05:06:13.366Z,101379.49
2023-04-01T05:08:43.275Z,101382.56
2023-04-01T05:11:15.710Z,101386.90
2023-04-01T05:13:45.191Z,101386.03
2023-04-01T05:16:16.899Z,101390.21
2023-04-01T05:18:46.017Z,101389.35
2023-04-01T05:21:15.884Z,101392.06
2023-04-01T05:23:43.954Z,101392.80
2023-04-01T05:26:15.492Z,101398.02
2023-04-01T05:28:44.375Z,101402.88
2023-04-01T05:31:13.034Z,101407.20
2023-04-01T05:33:41.707Z,101413.31
2023-04-01T05:36:16.670Z,101421.20
2023-04-01T05:38:45.289Z,101422.48
2023-04-01T05:41:14.624Z,101423.41
2023-04-01T05:43:44.386Z,101436.53
2023-04-01T05:46:12.962Z,101440.48
2023-04-01T05:48:41.226Z,101438.88
2023-04-01T05:51:14.774Z,101439.08
2023-04-01T05:53:43.976Z,101443.58
2023-04-01T05:56:12.220Z,101443.93
2023-04-01T05:58:40.798Z,101447.31
2023-04-01T06:01:15.860Z,101455.39
2023-04-01T06:03:45.522Z,101457.17
2023-04-01T06:06:27.609Z,101450.85
2023-04-01T06:08:59.039Z,101461.41
2023-04-01T06:11:44.270Z,101455.96
2023-04-01T06:14:24.442Z,101458.83
2023-04-01T06:17:10.537Z,101458.93
2023-04-01T06:20:02.404Z,101466.05
2023-04-01T06:23:18.517Z,101469.55
2023-04-01T06:26:14.159Z,101477.34
2023-04-01T06:28:49.731Z,101479.94
2023-04-01T06:31:36.322Z,101473.67
2023-04-01T06:34:31.262Z,101481.85
2023-04-01T06:37:05.593Z,101500.45
2023-04-01T06:39:54.750Z,101514.35
2023-04-01T06:42:25.837Z,101529.20
2023-04-01T06:45:18.898Z,101548.51
2023-04-01T06:48:43.202Z,101567.23
2023-04-01T06:51:17.359Z,101573.95
2023-04-01T06:54:04.962Z,101572.50
2023-04-01T06:56:35.498Z,101572.77
2023-04-01T06:59:15.286Z,101573.64
2023-04-01T07:01:54.062Z,101578.52
2023-04-01T07:04:30.551Z,101578.21
2023-04-01T07:07:07.064Z,101576.49
2023-04-01T07:09:42.777Z,101576.35
2023-04-01T07:12:44.485Z,101577.81
2023-04-01T07:15:51.048Z,101584.27
2023-04-01T07:18:26.711Z,101592.67
2023-04-01T07:20:56.555Z,101595.89
2023-04-01T07:23:32.602Z,101595.90
2023-04-01T07:26:05.699Z,101597.70
2023-04-01T07:28:34.946Z,101593.20
2023-04-01T07:31:27.078Z,101586.95
2023-04-01T07:34:15.587Z,101588.02
2023-04-01T07:36:49.254Z,101590.69
2023-04-01T07:39:32.552Z,101597.80
2023-04-01T07:42:13.095Z,101606.74
2023-04-01T07:45:31.373Z,101602.91
2023-04-01T07:48:05.417Z,101600.48
2023-04-01T07:50:39.518Z,101604.64
2023-04-01T07:53:36.813Z,101597.04
2023-04-01T07:56:12.903Z,101584.95
2023-04-01T07:59:02.581Z,101588.27
2023-04-01T08:01:51.513Z,101594.49
2023-04-01T08:04:50.578Z,101590.80
2023-04-01T08:07:27.036Z,101592.54
2023-04-01T08:10:19.106Z,101595.08
2023-04-01T08:13:04.972Z,101609.34
2023-04-01T08:15:46.933Z,101618.68
2023-04-01T08:18:32.474Z,101622.23
2023-04-01T08:21:11.648Z,101625.39
2023-04-01T08:23:49.922Z,101625.77
2023-04-01T08:26:30.270Z,101621.20
2023-04-01T08:29:23.256Z,101619.04
2023-04-01T08:32:27.648Z,101617.46
2023-04-01T08:35:39.312Z,101622.23
2023-04-01T08:38:14.767Z,101630.08
2023-04-01T08:41:03.282Z,101637.58
2023-04-01T08:43:58.083Z,101642.73
2023-04-01T08:46:41.638Z,101637.25
2023-04-01T08:49:09.945Z,101635.20
2023-04-01T08:51:56.339Z,101634.48
2023-04-01T08:54:27.028Z,101638.54
2023-04-01T08:57:16.177Z,101631.30
2023-04-01T08:59:56.331Z,101633.36
2023-04-01T09:02:51.256Z,101637.14
2023-04-01T09:05:36.663Z,101637.27
2023-04-01T09:08:13.707Z,101635.38
2023-04-01T09:11:06.622Z,101635.75
2023-04-01T09:14:05.535Z,101641.90
2023-04-01T09:16:52.576Z,101647.77
2023-04-01T09:20:10.800Z,101649.87
2023-04-01T09:22:52.483Z,101644.14
2023-04-01T09:25:43.012Z,101643.27
2023-04-01T09:28:19.677Z,101639.20
2023-04-01T09:31:02.912Z,101638.40
2023-04-01T09:34:13.212Z,101639.82
2023-04-01T09:37:08.797Z,101638.67
2023-04-01T09:40:15.465Z,101633.48
2023-04-01T09:43:05.625Z,101622.77
2023-04-01T09:46:32.042Z,101608.77
2023-04-01T09:49:35.826Z,101608.40
2023-04-01T09:52:22.913Z,101615.60
2023-04-01T09:55:07.428Z,101620.47
2023-04-01T09:58:00.836Z,101619.94
2023-04-01T10:00:44.660Z,101615.11
2023-04-01T10:03:42.969Z,101611.15
2023-04-01T10:06:29.912Z,101614.01
2023-04-01T10:09:03.961Z,101614.21
2023-04-01T10:11:47.384Z,101618.80
2023-04-01T10:15:04.863Z,101622.57
2023-04-01T10:17:48.502Z,101627.65
2023-04-01T10:20:50.585Z,101632.13
2023-04-01T10:23:43.527Z,101623.53
2023-04-01T10:26:48.218Z,101616.95
2023-04-01T10:29:41.062Z,101608.23
2023-04-01T10:32:30.517Z,101596.34
2023-04-01T10:35:48.611Z,101598.96
2023-04-01T10:38:42.291Z,101593.44
2023-04-01T10:41:25.565Z,101575.62
2023-04-01T10:44:29.153Z,101564.63
2023-04-01T10:47:09.581Z,101564.59
2023-04-01T10:50:12.136Z,101562.77
2023-04-01T10:53:31.010Z,101556.28
2023-04-01T10:56:31.051Z,101550.59
2023-04-01T10:59:30.296Z,101550.23
2023-04-01T11:02:37.869Z,101559.77
2023-04-01T11:05:29.516Z,101563.23
2023-04-01T11:08:42.435Z,101565.52
2023-04-01T11:11:40.914Z,101548.55
2023-04-01T11:14:27.760Z,101536.35
2023-04-01T11:17:33.648Z,101528.37
2023-04-01T11:20:04.873Z,101539.48
2023-04-01T11:23:07.197Z,101543.72
2023-04-01T11:25:51.659Z,101544.77
2023-04-01T11:28:41.294Z,101539.16
2023-04-01T11:31:47.981Z,101532.83
2023-04-01T11:34:33.544Z,101530.89
2023-04-01T11:37:06.481Z,101523.89
2023-04-01T11:39:52.594Z,101528.98
2023-04-01T11:42:29.648Z,101525.50
2023-04-01T11:45:44.827Z,101522.29
2023-04-01T11:48:29.298Z,101525.98
2023-04-01T11:51:17.575Z,101520.04
2023-04-01T11:54:00.763Z,101511.76
2023-04-01T11:56:51.747Z,101507.77
2023-04-01T11:59:52.681Z,101504.95
2023-04-01T12:03:01.019Z,101498.40
2023-04-01T12:06:01.593Z,101497.70
2023-04-01T12:08:55.365Z,101497.27
2023-04-01T12:11:52.182Z,101492.52
2023-04-01T12:14:55.827Z,101482.24
2023-04-01T12:18:05.211Z,101473.18
2023-04-01T12:20:39.394Z,101479.18
2023-04-01T12:23:26.802Z,101475.20
2023-04-01T12:26:25.403Z,101465.04
2023-04-01T12:29:16.284Z,101450.59
2023-04-01T12:32:16.599Z,101437.79
2023-04-01T12:35:11.149Z,101438.38
2023-04-01T12:38:17.402Z,101439.09
2023-04-01T12:41:04.283Z,101432.09
2023-04-01T12:44:10.013Z,101428.39
2023-04-01T12:47:21.706Z,101427.80
2023-04-01T12:50:19.571Z,101419.07
2023-04-01T12:53:07.607Z,101406.09
2023-04-01T12:55:46.822Z,101406.55
2023-04-01T12:58:36.912Z,101393.95
2023-04-01T13:01:23.613Z,101389.23
2023-04-01T13:04:02.329Z,101389.83
2023-04-01T13:07:16.116Z,101389.70
2023-04-01T13:10:13.700Z,101375.27
2023-04-01T13:12:42.022Z,101367.02
2023-04-01T13:15:41.578Z,101358.98
2023-04-01T13:18:31.272Z,101354.65
2023-04-01T13:21:35.893Z,101357.91
2023-04-01T13:24:07.193Z,101357.66
2023-04-01T13:27:00.132Z,101353.60
2023-04-01T13:29:39.746Z,101350.44
2023-04-01T13:32:22.265Z,101341.73
2023-04-01T13:35:29.141Z,101323.34
2023-04-01T13:38:29.915Z,101330.17
2023-04-01T13:41:35.607Z,101342.99
2023-04-01T13:44:08.324Z,101345.84
2023-04-01T13:46:59.070Z,101346.55
2023-04-01T13:49:59.114Z,101338.00
2023-04-01T13:52:51.968Z,101325.64
2023-04-01T13:55:32.032Z,101306.30
2023-04-01T13:58:28.816Z,101322.19
2023-04-01T14:01:06.917Z,101325.38
2023-04-01T14:04:05.016Z,101313.70
2023-04-01T14:07:20.433Z,101293.77
2023-04-01T14:10:26.050Z,101293.55
2023-04-01T14:13:05.780Z,101286.04
2023-04-01T14:15:57.137Z,101295.81
2023-04-01T14:18:52.406Z,101290.94
2023-04-01T14:21:51.561Z,101276.45
2023-04-01T14:24:23.953Z,101265.46
2023-04-01T14:27:20.301Z,101262.02
2023-04-01T14:30:16.340Z,101265.27
2023-04-01T14:33:03.212Z,101262.80
2023-04-01T14:36:00.711Z,101252.10
2023-04-01T14:38:51.201Z,101243.70
2023-04-01T14:41:45.683Z,101233.39
2023-04-01T14:44:52.350Z,101237.74
2023-04-01T14:47:52.954Z,101231.26
2023-04-01T14:50:25.488Z,101220.84
2023-04-01T14:53:29.344Z,101230.39
2023-04-01T14:56:01.000Z,101232.74
2023-04-01T14:58:51.584Z,101219.71
2023-04-01T15:01:31.902Z,101214.90
2023-04-01T15:04:09.441Z,101212.48
2023-04-01T15:06:55.476Z,101211.73
2023-04-01T15:09:59.550Z,101202.99
2023-04-01T15:13:22.077Z,101186.30
2023-04-01T15:16:03.538Z,101191.15
2023-04-01T15:18:50.535Z,101189.69
2023-04-01T15:21:41.818Z,101179.04
2023-04-01T15:24:36.917Z,101179.84
2023-04-01T15:27:20.582Z,101177.28
2023-04-01T15:29:56.170Z,101178.77
2023-04-01T15:32:46.874Z,101185.19
2023-04-01T15:35:27.306Z,101184.57
2023-04-01T15:38:04.186Z,101177.36
2023-04-01T15:40:48.991Z,101183.10
2023-04-01T15:43:30.483Z,101180.23
2023-04-01T15:46:29.611Z,101190.16
2023-04-01T15:49:27.884Z,101183.64
2023-04-01T15:52:06.522Z,101176.52
2023-04-01T15:54:40.620Z,101164.70
2023-04-01T15:57:25.534Z,101165.43
2023-04-01T16:00:38.039Z,101165.23
2023-04-01T16:03:15.816Z,101152.36
2023-04-01T16:06:10.024Z,101145.73
2023-04-01T16:08:58.454Z,101143.62
2023-04-01T16:11:58.072Z,101147.55
2023-04-01T16:14:59.828Z,101147.97
2023-04-01T16:17:46.523Z,101140.59
2023-04-01T16:20:25.469Z,101140.33
2023-04-01T16:23:01.555Z,101139.32
2023-04-01T16:25:38.948Z,101136.29
2023-04-01T16:28:09.767Z,101134.58
2023-04-01T16:30:49.787Z,101134.45
2023-04-01T16:33:42.394Z,101134.18
2023-04-01T16:36:34.014Z,101135.96
2023-04-01T16:39:31.433Z,101135.77
2023-04-01T16:42:50.298Z,101131.25
2023-04-01T16:45:30.426Z,101126.70
2023-04-01T16:48:18.500Z,101124.80
2023-04-01T16:50:52.653Z,101130.75
2023-04-01T16:53:41.794Z,101138.98
2023-04-01T16:56:16.265Z,101143.52
2023-04-01T16:59:08.644Z,101139.27
2023-04-01T17:01:48.973Z,101129.92
2023-04-01T17:04:54.718Z,101125.67
2023-04-01T17:07:49.290Z,101124.13
2023-04-01T17:10:41.302Z,101118.45
2023-04-01T17:13:09.759Z,101121.62
2023-04-01T17:15:53.840Z,101119.87
2023-04-01T17:18:50.452Z,101120.66
2023-04-01T17:21:41.223Z,101121.86
2023-04-01T17:24:31.571Z,101129.59
2023-04-01T17:27:26.232Z,101126.09
2023-04-01T17:30:14.587Z,101122.15
2023-04-01T17:33:40.711Z,101114.54
2023-04-01T17:36:36.770Z,101114.92
2023-04-01T17:39:26.966Z,101117.00
2023-04-01T17:42:35.755Z,101106.89
2023-04-01T17:45:32.507Z,101096.98
2023-04-01T17:48:25.217Z,101095.46
2023-04-01T17:51:28.467Z,101098.17
2023-04-01T17:54:38.289Z,101103.04
2023-04-01T17:57:51.534Z,101097.27
2023-04-01T18:00:42.204Z,101092.12
2023-04-01T18:03:56.338Z,101095.92
2023-04-01T18:06:39.468Z,101096.84
2023-04-01T18:09:42.877Z,101099.09
2023-04-01T18:12:55.722Z,101092.33
2023-04-01T18:15:38.829Z,101092.95
2023-04-01T18:18:36.199Z,101089.57
2023-04-01T18:21:22.965Z,101086.93
2023-04-01T18:24:03.898Z,101085.50
2023-04-01T18:26:38.500Z,101090.88
2023-04-01T18:29:16.171Z,101085.71
2023-04-01T18:31:47.019Z,101086.33
2023-04-01T18:34:53.485Z,101077.28
2023-04-01T18:37:40.536Z,101076.45
2023-04-01T18:40:22.280Z,101077.92
2023-04-01T18:42:59.070Z,101076.89
2023-04-01T18:45:38.530Z,101075.64
2023-04-01T18:48:39.788Z,101078.85
2023-04-01T18:51:34.328Z,101080.85
2023-04-01T18:54:26.054Z,101066.88
2023-04-01T18:57:23.129Z,101073.67
2023-04-01T18:59:58.823Z,101074.91
2023-04-01T19:02:37.577Z,101073.08
2023-04-01T19:05:32.859Z,101066.42
2023-04-01T19:08:22.743Z,101070.17
2023-04-01T19:11:02.735Z,101075.20
2023-04-01T19:13:49.487Z,101068.78
2023-04-01T19:16:24.412Z,101075.95
2023-04-01T19:18:52.584Z,101075.76
2023-04-01T19:21:32.985Z,101062.67
2023-04-01T19:24:34.650Z,101069.67
2023-04-01T19:27:07.420Z,101068.81
2023-04-01T19:30:17.821Z,101068.45
2023-04-01T19:33:39.518Z,101065.93
2023-04-01T19:36:21.086Z,101065.03
2023-04-01T19:39:22.193Z,101068.09
2023-04-01T19:42:09.813Z,101068.64
2023-04-01T19:44:59.823Z,101070.28
2023-04-01T19:47:28.057Z,101068.13
2023-04-01T19:50:10.014Z,101069.05
2023-04-01T19:52:44.113Z,101069.77
2023-04-01T19:55:38.467Z,101066.03
2023-04-01T19:58:27.543Z,101063.05
2023-04-01T20:00:59.908Z,101062.90
2023-04-01T20:03:49.403Z,101061.80
2023-04-01T20:06:37.354Z,101062.34
2023-04-01T20:09:35.456Z,101062.33
2023-04-01T20:12:49.067Z,101061.09
2023-04-01T20:15:52.997Z,101058.74
2023-04-01T20:18:26.496Z,101058.03
2023-04-01T20:21:03.451Z,101068.77
2023-04-01T20:23:37.509Z,101057.49
2023-04-01T20:26:20.899Z,101062.15
2023-04-01T20:29:10.825Z,101054.67
2023-04-01T20:31:42.879Z,101052.16
2023-04-01T20:34:45.430Z,101064.52
2023-04-01T20:37:59.095Z,101062.23
2023-04-01T20:41:13.221Z,101071.56
2023-04-01T20:44:06.436Z,101068.16
2023-04-01T20:46:49.090Z,101066.17
2023-04-01T20:49:18.046Z,101058.33
2023-04-01T20:52:23.818Z,101060.27
2023-04-01T20:55:22.772Z,101052.96
2023-04-01T20:57:56.996Z,101069.63
2023-04-01T21:00:37.180Z,101076.09
2023-04-01T21:03:39.503Z,101068.96
2023-04-01T21:06:33.244Z,101072.21
2023-04-01T21:09:26.317Z,101067.59
2023-04-01T21:12:26.159Z,101067.95
2023-04-01T21:15:27.875Z,101064.20
2023-04-01T21:18:08.625Z,101063.14
2023-04-01T21:20:55.003Z,101070.31
2023-04-01T21:23:35.644Z,101068.19
2023-04-01T21:26:25.057Z,101066.45
2023-04-01T21:29:31.222Z,101068.23
2023-04-01T21:32:36.151Z,101063.95
2023-04-01T21:35:18.221Z,101057.89
2023-04-01T21:38:07.996Z,101059.68
2023-04-01T21:41:30.431Z,101066.30
2023-04-01T21:44:30.589Z,101070.59
2023-04-01T21:47:09.995Z,101077.02
2023-04-01T21:50:08.926Z,101074.88
2023-04-01T21:52:46.398Z,101077.91
2023-04-01T21:55:56.143Z,101077.20
2023-04-01T21:58:50.031Z,101072.73
2023-04-01T22:01:39.431Z,101083.09
2023-04-01T22:04:26.571Z,101084.35
2023-04-01T22:07:10.155Z,101087.38
2023-04-01T22:09:50.157Z,101092.56
2023-04-01T22:12:27.262Z,101098.83
2023-04-01T22:15:26.675Z,101096.52
2023-04-01T22:18:23.161Z,101091.48
2023-04-01T22:20:56.438Z,101090.58
2023-04-01T22:23:34.020Z,101096.48
2023-04-01T22:26:59.901Z,101103.27
2023-04-01T22:29:30.836Z,101097.20
2023-04-01T22:32:18.799Z,101112.21
2023-04-01T22:34:47.024Z,101106.68
2023-04-01T22:37:36.662Z,101107.23
2023-04-01T22:40:23.593Z,101111.68
2023-04-01T22:43:00.768Z,101125.62
2023-04-01T22:46:06.272Z,101126.66
2023-04-01T22:48:50.579Z,101131.47
2023-04-01T22:51:41.974Z,101133.55
2023-04-01T22:54:39.141Z,101138.50
2023-04-01T22:57:17.326Z,101143.84
2023-04-01T22:59:56.158Z,101156.15
2023-04-01T23:02:33.235Z,101155.13
2023-04-01T23:05:03.541Z,101162.13
2023-04-01T23:07:50.270Z,101197.05
2023-04-01T23:10:46.344Z,101218.21
2023-04-01T23:13:23.062Z,101241.55
2023-04-01T23:15:54.038Z,101224.36
2023-04-01T23:18:34.729Z,101215.94
2023-04-01T23:21:37.251Z,101225.61
2023-04-01T23:24:23.702Z,101239.84
2023-04-01T23:27:08.458Z,101238.23
2023-04-01T23:29:38.192Z,101230.94
2023-04-01T23:32:14.581Z,101237.72
2023-04-01T23:34:54.911Z,101224.91
2023-04-01T23:37:24.890Z,101224.98
2023-04-01T23:39:59.327Z,101237.55
2023-04-01T23:42:33.070Z,101245.66
2023-04-01T23:45:17.514Z,101239.19
2023-04-01T23:47:48.335Z,101243.25
2023-04-01T23:50:25.658Z,101248.71
2023-04-01T23:53:00.762Z,101238.15
2023-04-01T23:55:33.475Z,101245.23
2023-04-01T23:58:07.508Z,101256.62
